sensor_id;sensor_type;location;lat;lon;timestamp;temperature;humidity
13892;DHT22;7016;48.172;8.058;2023-05-13T00:01:15;11.90;99.90
13892;DHT22;7016;48.172;8.058;2023-05-13T00:03:41;12.00;99.90
13892;DHT22;7016;48.172;8.058;2023-05-13T00:06:07;11.90;99.90
13892;DHT22;7016;48.172;8.058;2023-05-13T00:08:33;11.80;99.90
13892;DHT22;7016;48.172;8.058;2023-05-13T00:10:58;11.80;99.90
13892;DHT22;7016;48.172;8.058;2023-05-13T00:13:24;11.90;99.90
13892;DHT22;7016;48.172;8.058;2023-05-13T00:15:51;11.90;99.90
13892;DHT22;7016;48.172;8.058;2023-05-13T00:18:17;11.90;99.90
13892;DHT22;7016;48.172;8.058;2023-05-13T00:20:43;11.80;99.90
13892;DHT22;7016;48.172;8.058;2023-05-13T00:23:09;11.90;99.90
13892;DHT22;7016;48.172;8.058;2023-05-13T00:25:36;11.90;99.90
13892;DHT22;7016;48.172;8.058;2023-05-13T00:28:02;11.90;99.90
13892;DHT22;7016;48.172;8.058;2023-05-13T00:30:28;11.90;99.90
13892;DHT22;7016;48.172;8.058;2023-05-13T00:32:54;11.80;99.90
13892;DHT22;7016;48.172;8.058;2023-05-13T00:35:20;11.90;99.90
13892;DHT22;7016;48.172;8.058;2023-05-13T00:37:45;11.90;99.90
13892;DHT22;7016;48.172;8.058;2023-05-13T00:40:23;11.90;99.90
13892;DHT22;7016;48.172;8.058;2023-05-13T00:42:49;12.00;99.90
13892;DHT22;7016;48.172;8.058;2023-05-13T00:45:15;11.90;99.90
13892;DHT22;7016;48.172;8.058;2023-05-13T00:47:42;11.90;99.90
13892;DHT22;7016;48.172;8.058;2023-05-13T00:50:09;11.90;99.90
13892;DHT22;7016;48.172;8.058;2023-05-13T00:52:39;11.90;99.90
13892;DHT22;7016;48.172;8.058;2023-05-13T00:55:06;12.00;99.90
13892;DHT22;7016;48.172;8.058;2023-05-13T00:57:32;12.00;99.90
13892;DHT22;7016;48.172;8.058;2023-05-13T00:59:59;12.00;99.90
13892;DHT22;7016;48.172;8.058;2023-05-13T01:02:38;11.90;99.90
13892;DHT22;7016;48.172;8.058;2023-05-13T01:11:00;12.00;99.90
13892;DHT22;7016;48.172;8.058;2023-05-13T01:13:33;12.00;99.90
13892;DHT22;7016;48.172;8.058;2023-05-13T01:16:03;12.00;99.90
13892;DHT22;7016;48.172;8.058;2023-05-13T01:18:35;11.90;99.90
13892;DHT22;7016;48.172;8.058;2023-05-13T01:21:02;11.90;99.90
13892;DHT22;7016;48.172;8.058;2023-05-13T01:23:29;11.90;99.90
13892;DHT22;7016;48.172;8.058;2023-05-13T01:25:55;11.90;99.90
13892;DHT22;7016;48.172;8.058;2023-05-13T01:28:21;12.00;99.90
13892;DHT22;7016;48.172;8.058;2023-05-13T01:30:47;12.00;99.90
13892;DHT22;7016;48.172;8.058;2023-05-13T01:33:14;12.00;99.90
13892;DHT22;7016;48.172;8.058;2023-05-13T01:35:41;12.00;99.90
13892;DHT22;7016;48.172;8.058;2023-05-13T01:38:07;12.10;99.90
13892;DHT22;7016;48.172;8.058;2023-05-13T01:40:34;12.10;99.90
13892;DHT22;7016;48.172;8.058;2023-05-13T01:43:00;12.10;99.90
13892;DHT22;7016;48.172;8.058;2023-05-13T01:45:29;12.10;99.90
13892;DHT22;7016;48.172;8.058;2023-05-13T01:47:55;12.10;99.90
13892;DHT22;7016;48.172;8.058;2023-05-13T01:50:20;12.10;99.90
13892;DHT22;7016;48.172;8.058;2023-05-13T01:52:46;12.10;99.90
13892;DHT22;7016;48.172;8.058;2023-05-13T01:55:12;12.10;99.90
13892;DHT22;7016;48.172;8.058;2023-05-13T01:57:37;12.10;99.90
13892;DHT22;7016;48.172;8.058;2023-05-13T02:00:03;12.10;99.90
13892;DHT22;7016;48.172;8.058;2023-05-13T02:02:30;12.20;99.90
13892;DHT22;7016;48.172;8.058;2023-05-13T02:04:56;12.20;99.90
13892;DHT22;7016;48.172;8.058;2023-05-13T02:07:21;12.20;99.90
13892;DHT22;7016;48.172;8.058;2023-05-13T02:09:47;12.10;99.90
13892;DHT22;7016;48.172;8.058;2023-05-13T02:12:13;12.20;99.90
13892;DHT22;7016;48.172;8.058;2023-05-13T02:14:39;12.20;99.90
13892;DHT22;7016;48.172;8.058;2023-05-13T02:17:04;12.20;99.90
13892;DHT22;7016;48.172;8.058;2023-05-13T02:19:30;12.20;99.90
13892;DHT22;7016;48.172;8.058;2023-05-13T02:21:56;12.10;99.90
13892;DHT22;7016;48.172;8.058;2023-05-13T02:24:21;12.20;99.90
13892;DHT22;7016;48.172;8.058;2023-05-13T02:26:47;12.30;99.90
13892;DHT22;7016;48.172;8.058;2023-05-13T02:29:13;12.40;99.90
13892;DHT22;7016;48.172;8.058;2023-05-13T02:31:39;12.40;99.90
13892;DHT22;7016;48.172;8.058;2023-05-13T02:34:07;12.40;99.90
13892;DHT22;7016;48.172;8.058;2023-05-13T02:36:33;12.30;99.90
13892;DHT22;7016;48.172;8.058;2023-05-13T02:38:58;12.40;99.90
13892;DHT22;7016;48.172;8.058;2023-05-13T02:41:24;12.40;99.90
13892;DHT22;7016;48.172;8.058;2023-05-13T02:43:50;12.30;99.90
13892;DHT22;7016;48.172;8.058;2023-05-13T02:46:16;12.30;99.90
13892;DHT22;7016;48.172;8.058;2023-05-13T02:48:42;12.00;99.90
13892;DHT22;7016;48.172;8.058;2023-05-13T02:51:07;12.00;99.90
13892;DHT22;7016;48.172;8.058;2023-05-13T02:53:34;12.10;99.90
13892;DHT22;7016;48.172;8.058;2023-05-13T02:55:59;12.20;99.90
13892;DHT22;7016;48.172;8.058;2023-05-13T03:00:51;12.20;99.90
13892;DHT22;7016;48.172;8.058;2023-05-13T03:03:17;12.20;99.90
13892;DHT22;7016;48.172;8.058;2023-05-13T03:05:42;12.20;99.90
13892;DHT22;7016;48.172;8.058;2023-05-13T03:08:08;12.00;99.90
13892;DHT22;7016;48.172;8.058;2023-05-13T03:10:34;11.90;99.90
13892;DHT22;7016;48.172;8.058;2023-05-13T03:12:59;11.90;99.90
13892;DHT22;7016;48.172;8.058;2023-05-13T03:15:25;11.80;99.90
13892;DHT22;7016;48.172;8.058;2023-05-13T03:17:51;11.80;99.90
13892;DHT22;7016;48.172;8.058;2023-05-13T03:20:17;11.70;99.90
13892;DHT22;7016;48.172;8.058;2023-05-13T03:22:43;11.70;99.90
13892;DHT22;7016;48.172;8.058;2023-05-13T03:25:09;11.80;99.90
13892;DHT22;7016;48.172;8.058;2023-05-13T03:27:35;11.70;99.90
13892;DHT22;7016;48.172;8.058;2023-05-13T03:30:00;11.70;99.90
13892;DHT22;7016;48.172;8.058;2023-05-13T03:32:26;11.70;99.90
13892;DHT22;7016;48.172;8.058;2023-05-13T03:34:55;11.60;99.90
13892;DHT22;7016;48.172;8.058;2023-05-13T03:37:22;11.60;99.90
13892;DHT22;7016;48.172;8.058;2023-05-13T03:39:49;11.60;99.90
13892;DHT22;7016;48.172;8.058;2023-05-13T03:42:15;11.60;99.90
13892;DHT22;7016;48.172;8.058;2023-05-13T03:44:40;11.50;99.90
13892;DHT22;7016;48.172;8.058;2023-05-13T03:47:06;11.50;99.90
13892;DHT22;7016;48.172;8.058;2023-05-13T03:49:32;11.60;99.90
13892;DHT22;7016;48.172;8.058;2023-05-13T03:51:57;11.60;99.90
13892;DHT22;7016;48.172;8.058;2023-05-13T03:54:23;11.60;99.90
13892;DHT22;7016;48.172;8.058;2023-05-13T03:56:48;11.60;99.90
13892;DHT22;7016;48.172;8.058;2023-05-13T03:59:14;11.70;99.90
13892;DHT22;7016;48.172;8.058;2023-05-13T04:01:40;11.70;99.90
13892;DHT22;7016;48.172;8.058;2023-05-13T04:04:05;11.60;99.90
13892;DHT22;7016;48.172;8.058;2023-05-13T04:06:31;11.60;99.90
13892;DHT22;7016;48.172;8.058;2023-05-13T04:08:57;11.60;99.90
13892;DHT22;7016;48.172;8.058;2023-05-13T04:11:23;11.60;99.90
13892;DHT22;7016;48.172;8.058;2023-05-13T04:13:48;11.60;99.90
13892;DHT22;7016;48.172;8.058;2023-05-13T04:16:14;11.70;99.90
13892;DHT22;7016;48.172;8.058;2023-05-13T04:18:40;11.70;99.90
13892;DHT22;7016;48.172;8.058;2023-05-13T04:21:06;11.70;99.90
13892;DHT22;7016;48.172;8.058;2023-05-13T04:23:32;11.70;99.90
13892;DHT22;7016;48.172;8.058;2023-05-13T04:25:58;11.70;99.90
13892;DHT22;7016;48.172;8.058;2023-05-13T04:28:23;11.70;99.90
13892;DHT22;7016;48.172;8.058;2023-05-13T04:30:49;11.70;99.90
13892;DHT22;7016;48.172;8.058;2023-05-13T04:33:15;11.80;99.90
13892;DHT22;7016;48.172;8.058;2023-05-13T04:35:41;11.80;99.90
13892;DHT22;7016;48.172;8.058;2023-05-13T04:38:07;11.70;99.90
13892;DHT22;7016;48.172;8.058;2023-05-13T04:40:33;11.80;99.90
13892;DHT22;7016;48.172;8.058;2023-05-13T04:42:59;11.80;99.90
13892;DHT22;7016;48.172;8.058;2023-05-13T04:45:25;11.80;99.90
13892;DHT22;7016;48.172;8.058;2023-05-13T04:47:50;11.90;99.90
13892;DHT22;7016;48.172;8.058;2023-05-13T04:50:16;11.90;99.90
13892;DHT22;7016;48.172;8.058;2023-05-13T04:52:42;11.90;99.90
13892;DHT22;7016;48.172;8.058;2023-05-13T04:55:09;11.90;99.90
13892;DHT22;7016;48.172;8.058;2023-05-13T04:57:35;11.90;99.90
13892;DHT22;7016;48.172;8.058;2023-05-13T05:00:01;11.90;99.90
13892;DHT22;7016;48.172;8.058;2023-05-13T05:02:28;12.00;99.90
13892;DHT22;7016;48.172;8.058;2023-05-13T05:04:57;12.00;99.90
13892;DHT22;7016;48.172;8.058;2023-05-13T05:07:23;12.00;99.90
13892;DHT22;7016;48.172;8.058;2023-05-13T05:09:48;12.00;99.90
13892;DHT22;7016;48.172;8.058;2023-05-13T05:12:14;12.00;99.90
13892;DHT22;7016;48.172;8.058;2023-05-13T05:14:40;12.00;99.90
13892;DHT22;7016;48.172;8.058;2023-05-13T05:17:06;12.00;99.90
13892;DHT22;7016;48.172;8.058;2023-05-13T05:19:32;12.00;99.90
13892;DHT22;7016;48.172;8.058;2023-05-13T05:21:57;12.00;99.90
13892;DHT22;7016;48.172;8.058;2023-05-13T05:24:23;12.00;99.90
13892;DHT22;7016;48.172;8.058;2023-05-13T05:26:49;12.00;99.90
13892;DHT22;7016;48.172;8.058;2023-05-13T05:29:14;12.00;99.90
13892;DHT22;7016;48.172;8.058;2023-05-13T05:31:40;12.00;99.90
13892;DHT22;7016;48.172;8.058;2023-05-13T05:34:06;12.00;99.90
13892;DHT22;7016;48.172;8.058;2023-05-13T05:36:31;12.00;99.90
13892;DHT22;7016;48.172;8.058;2023-05-13T05:38:57;12.10;99.90
13892;DHT22;7016;48.172;8.058;2023-05-13T05:41:23;12.10;99.90
13892;DHT22;7016;48.172;8.058;2023-05-13T05:43:49;12.10;99.90
13892;DHT22;7016;48.172;8.058;2023-05-13T05:46:15;12.10;99.90
13892;DHT22;7016;48.172;8.058;2023-05-13T05:48:41;12.10;99.90
13892;DHT22;7016;48.172;8.058;2023-05-13T05:51:07;12.20;99.90
13892;DHT22;7016;48.172;8.058;2023-05-13T05:53:34;12.20;99.90
13892;DHT22;7016;48.172;8.058;2023-05-13T05:56:02;12.20;99.90
13892;DHT22;7016;48.172;8.058;2023-05-13T05:58:28;12.10;99.90
13892;DHT22;7016;48.172;8.058;2023-05-13T06:00:54;12.10;99.90
13892;DHT22;7016;48.172;8.058;2023-05-13T06:03:21;12.10;99.90
13892;DHT22;7016;48.172;8.058;2023-05-13T06:05:50;12.10;99.90
13892;DHT22;7016;48.172;8.058;2023-05-13T06:08:20;12.20;99.90
13892;DHT22;7016;48.172;8.058;2023-05-13T06:10:46;12.30;99.90
13892;DHT22;7016;48.172;8.058;2023-05-13T06:13:12;12.40;99.90
13892;DHT22;7016;48.172;8.058;2023-05-13T06:15:38;12.30;99.90
13892;DHT22;7016;48.172;8.058;2023-05-13T06:18:04;12.30;99.90
13892;DHT22;7016;48.172;8.058;2023-05-13T06:20:31;12.30;99.90
13892;DHT22;7016;48.172;8.058;2023-05-13T06:22:56;12.30;99.90
13892;DHT22;7016;48.172;8.058;2023-05-13T06:25:22;12.20;99.90
13892;DHT22;7016;48.172;8.058;2023-05-13T06:27:48;12.20;99.90
13892;DHT22;7016;48.172;8.058;2023-05-13T06:30:13;12.30;99.90
13892;DHT22;7016;48.172;8.058;2023-05-13T06:32:40;12.30;99.90
13892;DHT22;7016;48.172;8.058;2023-05-13T06:35:05;12.40;99.90
13892;DHT22;7016;48.172;8.058;2023-05-13T06:37:31;12.40;99.90
13892;DHT22;7016;48.172;8.058;2023-05-13T06:39:57;12.40;99.90
13892;DHT22;7016;48.172;8.058;2023-05-13T06:42:23;12.30;99.90
13892;DHT22;7016;48.172;8.058;2023-05-13T06:44:49;12.40;99.90
13892;DHT22;7016;48.172;8.058;2023-05-13T06:47:15;12.40;99.90
13892;DHT22;7016;48.172;8.058;2023-05-13T06:49:41;12.50;99.90
13892;DHT22;7016;48.172;8.058;2023-05-13T06:52:08;12.60;99.90
13892;DHT22;7016;48.172;8.058;2023-05-13T06:54:34;12.50;99.90
13892;DHT22;7016;48.172;8.058;2023-05-13T06:57:00;12.60;99.90
13892;DHT22;7016;48.172;8.058;2023-05-13T06:59:26;12.70;99.90
13892;DHT22;7016;48.172;8.058;2023-05-13T07:01:51;12.60;99.90
13892;DHT22;7016;48.172;8.058;2023-05-13T07:04:17;12.70;99.90
13892;DHT22;7016;48.172;8.058;2023-05-13T07:06:43;12.80;99.90
13892;DHT22;7016;48.172;8.058;2023-05-13T07:09:08;12.90;99.90
13892;DHT22;7016;48.172;8.058;2023-05-13T07:11:35;12.90;99.90
13892;DHT22;7016;48.172;8.058;2023-05-13T07:14:01;12.90;99.90
13892;DHT22;7016;48.172;8.058;2023-05-13T07:16:26;13.00;99.90
13892;DHT22;7016;48.172;8.058;2023-05-13T07:18:52;13.10;99.90
13892;DHT22;7016;48.172;8.058;2023-05-13T07:21:19;13.10;99.90
13892;DHT22;7016;48.172;8.058;2023-05-13T07:23:44;13.10;99.90
13892;DHT22;7016;48.172;8.058;2023-05-13T07:26:10;13.20;99.90
13892;DHT22;7016;48.172;8.058;2023-05-13T07:28:36;13.30;99.90
13892;DHT22;7016;48.172;8.058;2023-05-13T07:31:03;13.20;99.90
13892;DHT22;7016;48.172;8.058;2023-05-13T07:33:29;13.20;99.90
13892;DHT22;7016;48.172;8.058;2023-05-13T07:35:56;13.30;99.90
13892;DHT22;7016;48.172;8.058;2023-05-13T07:38:22;13.20;99.90
13892;DHT22;7016;48.172;8.058;2023-05-13T07:40:48;13.20;99.90
13892;DHT22;7016;48.172;8.058;2023-05-13T07:43:13;13.20;99.90
13892;DHT22;7016;48.172;8.058;2023-05-13T07:45:42;13.20;99.90
13892;DHT22;7016;48.172;8.058;2023-05-13T07:48:07;13.20;99.90
13892;DHT22;7016;48.172;8.058;2023-05-13T07:50:34;13.30;99.90
13892;DHT22;7016;48.172;8.058;2023-05-13T07:53:01;13.30;99.90
13892;DHT22;7016;48.172;8.058;2023-05-13T07:55:27;13.30;99.90
13892;DHT22;7016;48.172;8.058;2023-05-13T07:57:53;13.30;99.90
13892;DHT22;7016;48.172;8.058;2023-05-13T08:00:19;13.30;99.90
13892;DHT22;7016;48.172;8.058;2023-05-13T08:02:45;13.40;99.90
13892;DHT22;7016;48.172;8.058;2023-05-13T08:05:10;13.40;99.90
13892;DHT22;7016;48.172;8.058;2023-05-13T08:07:36;13.40;99.90
13892;DHT22;7016;48.172;8.058;2023-05-13T08:10:02;13.40;99.90
13892;DHT22;7016;48.172;8.058;2023-05-13T08:12:28;13.30;99.90
13892;DHT22;7016;48.172;8.058;2023-05-13T08:14:54;13.30;99.90
13892;DHT22;7016;48.172;8.058;2023-05-13T08:17:19;13.30;99.90
13892;DHT22;7016;48.172;8.058;2023-05-13T08:19:46;13.30;99.90
13892;DHT22;7016;48.172;8.058;2023-05-13T08:22:12;13.30;99.90
13892;DHT22;7016;48.172;8.058;2023-05-13T08:24:38;13.40;99.90
13892;DHT22;7016;48.172;8.058;2023-05-13T08:27:05;13.40;99.90
13892;DHT22;7016;48.172;8.058;2023-05-13T08:29:31;13.60;99.90
13892;DHT22;7016;48.172;8.058;2023-05-13T08:31:57;13.50;99.90
13892;DHT22;7016;48.172;8.058;2023-05-13T08:34:24;13.50;99.90
13892;DHT22;7016;48.172;8.058;2023-05-13T08:36:50;13.60;99.90
13892;DHT22;7016;48.172;8.058;2023-05-13T08:39:15;13.70;99.90
13892;DHT22;7016;48.172;8.058;2023-05-13T08:41:43;13.70;99.90
13892;DHT22;7016;48.172;8.058;2023-05-13T08:44:11;13.70;99.90
13892;DHT22;7016;48.172;8.058;2023-05-13T08:46:38;13.80;99.90
13892;DHT22;7016;48.172;8.058;2023-05-13T08:49:06;13.80;99.90
13892;DHT22;7016;48.172;8.058;2023-05-13T08:51:33;13.90;99.90
13892;DHT22;7016;48.172;8.058;2023-05-13T08:54:00;14.10;99.90
13892;DHT22;7016;48.172;8.058;2023-05-13T08:56:26;14.20;99.90
13892;DHT22;7016;48.172;8.058;2023-05-13T08:58:53;14.20;99.90
13892;DHT22;7016;48.172;8.058;2023-05-13T09:01:20;14.20;99.90
13892;DHT22;7016;48.172;8.058;2023-05-13T09:04:05;14.30;99.90
13892;DHT22;7016;48.172;8.058;2023-05-13T09:06:32;14.40;99.90
13892;DHT22;7016;48.172;8.058;2023-05-13T09:08:58;14.40;99.90
13892;DHT22;7016;48.172;8.058;2023-05-13T09:11:25;14.40;99.90
13892;DHT22;7016;48.172;8.058;2023-05-13T09:13:58;14.50;99.90
13892;DHT22;7016;48.172;8.058;2023-05-13T09:16:25;14.50;99.90
13892;DHT22;7016;48.172;8.058;2023-05-13T09:19:01;14.50;99.90
13892;DHT22;7016;48.172;8.058;2023-05-13T09:21:29;14.50;99.90
13892;DHT22;7016;48.172;8.058;2023-05-13T09:24:13;14.50;99.90
13892;DHT22;7016;48.172;8.058;2023-05-13T09:26:44;14.50;99.90
13892;DHT22;7016;48.172;8.058;2023-05-13T09:29:36;14.60;99.90
13892;DHT22;7016;48.172;8.058;2023-05-13T09:32:06;14.70;99.90
13892;DHT22;7016;48.172;8.058;2023-05-13T09:34:34;14.80;99.90
13892;DHT22;7016;48.172;8.058;2023-05-13T09:37:07;14.80;99.90
13892;DHT22;7016;48.172;8.058;2023-05-13T09:39:42;15.00;99.90
13892;DHT22;7016;48.172;8.058;2023-05-13T09:42:14;15.00;99.90
13892;DHT22;7016;48.172;8.058;2023-05-13T09:44:42;15.10;99.90
13892;DHT22;7016;48.172;8.058;2023-05-13T09:47:12;15.10;99.90
13892;DHT22;7016;48.172;8.058;2023-05-13T09:49:40;15.20;99.90
13892;DHT22;7016;48.172;8.058;2023-05-13T09:52:08;15.20;99.90
13892;DHT22;7016;48.172;8.058;2023-05-13T09:54:36;15.20;99.90
13892;DHT22;7016;48.172;8.058;2023-05-13T09:57:02;15.10;99.90
13892;DHT22;7016;48.172;8.058;2023-05-13T09:59:31;15.20;99.90
13892;DHT22;7016;48.172;8.058;2023-05-13T10:01:59;15.20;99.90
13892;DHT22;7016;48.172;8.058;2023-05-13T10:04:25;15.30;99.90
13892;DHT22;7016;48.172;8.058;2023-05-13T10:06:51;15.30;99.90
13892;DHT22;7016;48.172;8.058;2023-05-13T10:09:18;15.20;99.90
13892;DHT22;7016;48.172;8.058;2023-05-13T10:11:45;15.20;99.90
13892;DHT22;7016;48.172;8.058;2023-05-13T10:14:12;15.10;99.90
13892;DHT22;7016;48.172;8.058;2023-05-13T10:16:38;15.10;99.90
13892;DHT22;7016;48.172;8.058;2023-05-13T10:19:04;15.10;99.90
13892;DHT22;7016;48.172;8.058;2023-05-13T10:21:30;15.10;99.90
13892;DHT22;7016;48.172;8.058;2023-05-13T10:23:57;15.00;99.90
13892;DHT22;7016;48.172;8.058;2023-05-13T10:26:23;15.00;99.90
13892;DHT22;7016;48.172;8.058;2023-05-13T10:28:49;15.20;99.90
13892;DHT22;7016;48.172;8.058;2023-05-13T10:31:16;15.20;99.90
13892;DHT22;7016;48.172;8.058;2023-05-13T10:33:42;15.20;99.90
13892;DHT22;7016;48.172;8.058;2023-05-13T10:44:42;15.20;99.90
13892;DHT22;7016;48.172;8.058;2023-05-13T10:47:08;15.30;99.90
13892;DHT22;7016;48.172;8.058;2023-05-13T10:49:35;15.30;99.90
13892;DHT22;7016;48.172;8.058;2023-05-13T10:52:10;15.30;99.90
13892;DHT22;7016;48.172;8.058;2023-05-13T10:54:39;15.20;99.90
13892;DHT22;7016;48.172;8.058;2023-05-13T10:57:07;15.30;99.90
13892;DHT22;7016;48.172;8.058;2023-05-13T10:59:33;15.30;99.90
13892;DHT22;7016;48.172;8.058;2023-05-13T11:02:01;15.30;99.90
13892;DHT22;7016;48.172;8.058;2023-05-13T11:04:27;15.40;99.90
13892;DHT22;7016;48.172;8.058;2023-05-13T11:06:53;15.40;99.90
13892;DHT22;7016;48.172;8.058;2023-05-13T11:11:52;15.30;99.90
13892;DHT22;7016;48.172;8.058;2023-05-13T11:14:29;15.20;99.90
13892;DHT22;7016;48.172;8.058;2023-05-13T11:19:28;15.20;99.90
13892;DHT22;7016;48.172;8.058;2023-05-13T11:21:57;15.20;99.90
13892;DHT22;7016;48.172;8.058;2023-05-13T11:24:23;15.30;99.90
13892;DHT22;7016;48.172;8.058;2023-05-13T11:26:57;15.30;99.90
13892;DHT22;7016;48.172;8.058;2023-05-13T11:29:36;15.30;99.90
13892;DHT22;7016;48.172;8.058;2023-05-13T11:32:04;15.20;99.90
13892;DHT22;7016;48.172;8.058;2023-05-13T11:34:31;15.20;99.90
13892;DHT22;7016;48.172;8.058;2023-05-13T11:39:29;15.10;99.90
13892;DHT22;7016;48.172;8.058;2023-05-13T11:41:55;15.00;99.90
13892;DHT22;7016;48.172;8.058;2023-05-13T11:44:24;14.90;99.90
13892;DHT22;7016;48.172;8.058;2023-05-13T11:47:02;15.00;99.90
13892;DHT22;7016;48.172;8.058;2023-05-13T11:49:41;15.00;99.90
13892;DHT22;7016;48.172;8.058;2023-05-13T11:52:15;15.00;99.90
13892;DHT22;7016;48.172;8.058;2023-05-13T11:54:47;15.10;99.90
13892;DHT22;7016;48.172;8.058;2023-05-13T11:57:22;15.10;99.90
13892;DHT22;7016;48.172;8.058;2023-05-13T12:02:29;14.90;99.90
13892;DHT22;7016;48.172;8.058;2023-05-13T12:04:58;14.90;99.90
13892;DHT22;7016;48.172;8.058;2023-05-13T12:07:25;15.00;99.90
13892;DHT22;7016;48.172;8.058;2023-05-13T12:09:52;15.00;99.90
13892;DHT22;7016;48.172;8.058;2023-05-13T12:12:18;15.00;99.90
13892;DHT22;7016;48.172;8.058;2023-05-13T12:14:45;15.10;99.90
13892;DHT22;7016;48.172;8.058;2023-05-13T12:17:12;15.10;99.90
13892;DHT22;7016;48.172;8.058;2023-05-13T12:19:39;15.10;99.90
13892;DHT22;7016;48.172;8.058;2023-05-13T12:22:05;15.10;99.90
13892;DHT22;7016;48.172;8.058;2023-05-13T12:24:34;15.00;99.90
13892;DHT22;7016;48.172;8.058;2023-05-13T12:27:04;15.00;99.90
13892;DHT22;7016;48.172;8.058;2023-05-13T12:29:41;15.00;99.90
13892;DHT22;7016;48.172;8.058;2023-05-13T12:32:07;15.10;99.90
13892;DHT22;7016;48.172;8.058;2023-05-13T12:34:34;15.00;99.90
13892;DHT22;7016;48.172;8.058;2023-05-13T12:37:12;15.00;99.90
13892;DHT22;7016;48.172;8.058;2023-05-13T12:39:39;15.10;99.90
13892;DHT22;7016;48.172;8.058;2023-05-13T12:42:12;15.10;99.90
13892;DHT22;7016;48.172;8.058;2023-05-13T12:44:38;15.10;99.90
13892;DHT22;7016;48.172;8.058;2023-05-13T12:47:04;15.10;99.90
13892;DHT22;7016;48.172;8.058;2023-05-13T12:49:31;14.80;99.90
13892;DHT22;7016;48.172;8.058;2023-05-13T12:51:57;14.70;99.90
13892;DHT22;7016;48.172;8.058;2023-05-13T12:54:22;14.70;99.90
13892;DHT22;7016;48.172;8.058;2023-05-13T12:56:48;14.70;99.90
13892;DHT22;7016;48.172;8.058;2023-05-13T12:59:14;14.80;99.90
13892;DHT22;7016;48.172;8.058;2023-05-13T13:01:41;14.80;99.90
13892;DHT22;7016;48.172;8.058;2023-05-13T13:04:07;14.90;99.90
13892;DHT22;7016;48.172;8.058;2023-05-13T13:06:32;14.90;99.90
13892;DHT22;7016;48.172;8.058;2023-05-13T13:08:58;14.80;99.90
13892;DHT22;7016;48.172;8.058;2023-05-13T13:11:24;14.80;99.90
13892;DHT22;7016;48.172;8.058;2023-05-13T13:13:49;14.70;99.90
13892;DHT22;7016;48.172;8.058;2023-05-13T13:16:15;14.80;99.90
13892;DHT22;7016;48.172;8.058;2023-05-13T13:18:41;14.90;99.90
13892;DHT22;7016;48.172;8.058;2023-05-13T13:21:07;14.90;99.90
13892;DHT22;7016;48.172;8.058;2023-05-13T13:23:33;15.10;99.90
13892;DHT22;7016;48.172;8.058;2023-05-13T13:25:59;15.00;99.90
13892;DHT22;7016;48.172;8.058;2023-05-13T13:28:25;15.20;99.90
13892;DHT22;7016;48.172;8.058;2023-05-13T13:30:51;15.20;99.90
13892;DHT22;7016;48.172;8.058;2023-05-13T13:33:17;15.10;99.90
13892;DHT22;7016;48.172;8.058;2023-05-13T13:35:44;15.10;99.90
13892;DHT22;7016;48.172;8.058;2023-05-13T13:38:10;15.10;99.90
13892;DHT22;7016;48.172;8.058;2023-05-13T13:40:36;15.10;99.90
13892;DHT22;7016;48.172;8.058;2023-05-13T13:43:05;15.20;99.90
13892;DHT22;7016;48.172;8.058;2023-05-13T13:45:32;15.10;99.90
13892;DHT22;7016;48.172;8.058;2023-05-13T13:47:58;15.10;99.90
13892;DHT22;7016;48.172;8.058;2023-05-13T13:50:24;15.10;99.90
13892;DHT22;7016;48.172;8.058;2023-05-13T13:52:49;15.10;99.90
13892;DHT22;7016;48.172;8.058;2023-05-13T13:55:18;15.10;99.90
13892;DHT22;7016;48.172;8.058;2023-05-13T13:57:44;14.90;99.90
13892;DHT22;7016;48.172;8.058;2023-05-13T14:00:10;15.10;99.90
13892;DHT22;7016;48.172;8.058;2023-05-13T14:02:36;15.00;99.90
13892;DHT22;7016;48.172;8.058;2023-05-13T14:05:02;15.20;99.90
13892;DHT22;7016;48.172;8.058;2023-05-13T14:07:28;15.20;99.90
13892;DHT22;7016;48.172;8.058;2023-05-13T14:09:54;15.10;99.90
13892;DHT22;7016;48.172;8.058;2023-05-13T14:12:19;15.10;99.90
13892;DHT22;7016;48.172;8.058;2023-05-13T14:14:45;14.90;99.90
13892;DHT22;7016;48.172;8.058;2023-05-13T14:17:10;15.00;99.90
13892;DHT22;7016;48.172;8.058;2023-05-13T14:19:36;15.20;99.90
13892;DHT22;7016;48.172;8.058;2023-05-13T14:22:02;15.20;99.90
13892;DHT22;7016;48.172;8.058;2023-05-13T14:24:28;15.30;99.90
13892;DHT22;7016;48.172;8.058;2023-05-13T14:26:54;15.50;99.90
13892;DHT22;7016;48.172;8.058;2023-05-13T14:29:19;15.20;99.90
13892;DHT22;7016;48.172;8.058;2023-05-13T14:31:45;15.30;99.90
13892;DHT22;7016;48.172;8.058;2023-05-13T14:34:11;15.20;99.90
13892;DHT22;7016;48.172;8.058;2023-05-13T14:36:36;15.20;99.90
13892;DHT22;7016;48.172;8.058;2023-05-13T14:39:02;15.30;99.90
13892;DHT22;7016;48.172;8.058;2023-05-13T14:41:28;15.40;99.90
13892;DHT22;7016;48.172;8.058;2023-05-13T14:43:54;15.40;99.90
13892;DHT22;7016;48.172;8.058;2023-05-13T14:46:20;15.40;99.90
13892;DHT22;7016;48.172;8.058;2023-05-13T14:48:45;15.20;99.90
13892;DHT22;7016;48.172;8.058;2023-05-13T14:51:11;15.20;99.90
13892;DHT22;7016;48.172;8.058;2023-05-13T14:53:41;15.20;99.90
13892;DHT22;7016;48.172;8.058;2023-05-13T14:56:07;15.30;99.90
13892;DHT22;7016;48.172;8.058;2023-05-13T14:58:33;15.40;99.90
13892;DHT22;7016;48.172;8.058;2023-05-13T15:00:58;15.40;99.90
13892;DHT22;7016;48.172;8.058;2023-05-13T15:03:24;15.40;99.90
13892;DHT22;7016;48.172;8.058;2023-05-13T15:05:50;15.40;99.90
13892;DHT22;7016;48.172;8.058;2023-05-13T15:08:16;15.10;99.90
13892;DHT22;7016;48.172;8.058;2023-05-13T15:10:42;15.10;99.90
13892;DHT22;7016;48.172;8.058;2023-05-13T15:13:07;15.20;99.90
13892;DHT22;7016;48.172;8.058;2023-05-13T15:15:33;15.10;99.90
13892;DHT22;7016;48.172;8.058;2023-05-13T15:17:59;15.10;99.90
13892;DHT22;7016;48.172;8.058;2023-05-13T15:20:25;15.10;99.90
13892;DHT22;7016;48.172;8.058;2023-05-13T15:22:50;15.00;99.90
13892;DHT22;7016;48.172;8.058;2023-05-13T15:25:16;15.00;99.90
13892;DHT22;7016;48.172;8.058;2023-05-13T15:27:41;15.10;99.90
13892;DHT22;7016;48.172;8.058;2023-05-13T15:30:08;15.10;99.90
13892;DHT22;7016;48.172;8.058;2023-05-13T15:32:33;15.20;99.90
13892;DHT22;7016;48.172;8.058;2023-05-13T15:34:59;15.30;99.90
13892;DHT22;7016;48.172;8.058;2023-05-13T15:37:25;15.20;99.90
13892;DHT22;7016;48.172;8.058;2023-05-13T15:39:50;15.20;99.90
13892;DHT22;7016;48.172;8.058;2023-05-13T15:42:16;15.20;99.90
13892;DHT22;7016;48.172;8.058;2023-05-13T15:44:42;15.20;99.90
13892;DHT22;7016;48.172;8.058;2023-05-13T15:47:09;15.20;99.90
13892;DHT22;7016;48.172;8.058;2023-05-13T15:49:35;15.10;99.90
13892;DHT22;7016;48.172;8.058;2023-05-13T15:52:01;15.10;99.90
13892;DHT22;7016;48.172;8.058;2023-05-13T15:54:28;15.10;99.90
13892;DHT22;7016;48.172;8.058;2023-05-13T15:56:53;15.20;99.90
13892;DHT22;7016;48.172;8.058;2023-05-13T15:59:21;15.30;99.90
13892;DHT22;7016;48.172;8.058;2023-05-13T16:01:47;15.30;99.90
13892;DHT22;7016;48.172;8.058;2023-05-13T16:04:12;15.50;99.90
13892;DHT22;7016;48.172;8.058;2023-05-13T16:06:38;15.50;99.90
13892;DHT22;7016;48.172;8.058;2023-05-13T16:09:04;15.40;99.90